sensor_id;sensor_type;location;lat;lon;timestamp;P1;durP1;ratioP1;P2;durP2;ratioP2
20725;SDS011;10524;48.132;8.518;2023-06-14T00:00:50;6.55;;;5.18;;
20725;SDS011;10524;48.132;8.518;2023-06-14T00:03:18;7.20;;;5.25;;
20725;SDS011;10524;48.132;8.518;2023-06-14T00:05:47;9.85;;;5.10;;
20725;SDS011;10524;48.132;8.518;2023-06-14T00:08:13;6.15;;;5.03;;
20725;SDS011;10524;48.132;8.518;2023-06-14T00:10:39;6.10;;;5.07;;
20725;SDS011;10524;48.132;8.518;2023-06-14T00:13:07;6.63;;;5.35;;
20725;SDS011;10524;48.132;8.518;2023-06-14T00:15:33;8.73;;;5.22;;
20725;SDS011;10524;48.132;8.518;2023-06-14T00:17:59;8.18;;;5.50;;
20725;SDS011;10524;48.132;8.518;2023-06-14T00:20:29;6.18;;;5.00;;
20725;SDS011;10524;48.132;8.518;2023-06-14T00:22:57;6.55;;;5.43;;
20725;SDS011;10524;48.132;8.518;2023-06-14T00:25:23;6.22;;;5.30;;
20725;SDS011;10524;48.132;8.518;2023-06-14T00:27:52;6.38;;;5.07;;
20725;SDS011;10524;48.132;8.518;2023-06-14T00:30:19;8.25;;;5.47;;
20725;SDS011;10524;48.132;8.518;2023-06-14T00:32:45;7.00;;;5.28;;
20725;SDS011;10524;48.132;8.518;2023-06-14T00:35:11;8.82;;;5.55;;
20725;SDS011;10524;48.132;8.518;2023-06-14T00:37:37;7.38;;;5.05;;
20725;SDS011;10524;48.132;8.518;2023-06-14T00:40:03;7.30;;;5.47;;
20725;SDS011;10524;48.132;8.518;2023-06-14T00:42:30;6.63;;;5.35;;
20725;SDS011;10524;48.132;8.518;2023-06-14T00:44:56;7.28;;;5.57;;
20725;SDS011;10524;48.132;8.518;2023-06-14T00:47:22;8.75;;;5.80;;
20725;SDS011;10524;48.132;8.518;2023-06-14T00:49:47;7.32;;;5.30;;
20725;SDS011;10524;48.132;8.518;2023-06-14T00:52:16;8.18;;;5.20;;
20725;SDS011;10524;48.132;8.518;2023-06-14T00:54:42;9.18;;;5.05;;
20725;SDS011;10524;48.132;8.518;2023-06-14T00:57:08;7.88;;;5.47;;
20725;SDS011;10524;48.132;8.518;2023-06-14T00:59:36;8.10;;;5.70;;
20725;SDS011;10524;48.132;8.518;2023-06-14T01:02:07;8.70;;;5.63;;
20725;SDS011;10524;48.132;8.518;2023-06-14T01:04:33;8.18;;;5.68;;
20725;SDS011;10524;48.132;8.518;2023-06-14T01:07:02;6.40;;;5.22;;
20725;SDS011;10524;48.132;8.518;2023-06-14T01:09:48;7.85;;;5.78;;
20725;SDS011;10524;48.132;8.518;2023-06-14T01:12:29;7.03;;;5.68;;
20725;SDS011;10524;48.132;8.518;2023-06-14T01:15:01;7.35;;;5.55;;
20725;SDS011;10524;48.132;8.518;2023-06-14T01:17:28;6.47;;;5.43;;
20725;SDS011;10524;48.132;8.518;2023-06-14T01:19:57;7.72;;;5.82;;
20725;SDS011;10524;48.132;8.518;2023-06-14T01:22:27;8.23;;;6.00;;
20725;SDS011;10524;48.132;8.518;2023-06-14T01:24:54;8.77;;;6.03;;
20725;SDS011;10524;48.132;8.518;2023-06-14T01:27:23;8.23;;;5.88;;
20725;SDS011;10524;48.132;8.518;2023-06-14T01:29:53;6.75;;;5.88;;
20725;SDS011;10524;48.132;8.518;2023-06-14T01:32:22;7.55;;;5.55;;
20725;SDS011;10524;48.132;8.518;2023-06-14T01:34:50;8.50;;;5.63;;
20725;SDS011;10524;48.132;8.518;2023-06-14T01:37:16;6.75;;;5.53;;
20725;SDS011;10524;48.132;8.518;2023-06-14T01:39:43;6.32;;;5.15;;
20725;SDS011;10524;48.132;8.518;2023-06-14T01:42:10;6.90;;;5.90;;
20725;SDS011;10524;48.132;8.518;2023-06-14T01:44:37;8.70;;;5.47;;
20725;SDS011;10524;48.132;8.518;2023-06-14T01:47:04;8.18;;;6.20;;
20725;SDS011;10524;48.132;8.518;2023-06-14T01:49:33;7.30;;;5.50;;
20725;SDS011;10524;48.132;8.518;2023-06-14T01:54:28;6.60;;;5.32;;
20725;SDS011;10524;48.132;8.518;2023-06-14T01:56:55;9.07;;;6.47;;
20725;SDS011;10524;48.132;8.518;2023-06-14T01:59:21;8.70;;;6.32;;
20725;SDS011;10524;48.132;8.518;2023-06-14T02:01:47;7.22;;;5.50;;
20725;SDS011;10524;48.132;8.518;2023-06-14T02:04:13;7.78;;;6.18;;
20725;SDS011;10524;48.132;8.518;2023-06-14T02:06:38;9.23;;;6.35;;
20725;SDS011;10524;48.132;8.518;2023-06-14T02:09:04;8.27;;;6.30;;
20725;SDS011;10524;48.132;8.518;2023-06-14T02:11:29;8.70;;;6.32;;
20725;SDS011;10524;48.132;8.518;2023-06-14T02:13:55;8.15;;;6.00;;
20725;SDS011;10524;48.132;8.518;2023-06-14T02:16:21;9.60;;;6.82;;
20725;SDS011;10524;48.132;8.518;2023-06-14T02:18:47;9.30;;;6.72;;
20725;SDS011;10524;48.132;8.518;2023-06-14T02:21:13;8.75;;;6.25;;
20725;SDS011;10524;48.132;8.518;2023-06-14T02:23:39;10.15;;;6.30;;
20725;SDS011;10524;48.132;8.518;2023-06-14T02:26:05;9.38;;;5.80;;
20725;SDS011;10524;48.132;8.518;2023-06-14T02:28:31;8.38;;;6.25;;
20725;SDS011;10524;48.132;8.518;2023-06-14T02:30:56;9.00;;;6.20;;
20725;SDS011;10524;48.132;8.518;2023-06-14T02:33:22;7.13;;;6.07;;
20725;SDS011;10524;48.132;8.518;2023-06-14T02:35:48;7.80;;;5.97;;
20725;SDS011;10524;48.132;8.518;2023-06-14T02:38:13;7.78;;;6.28;;
20725;SDS011;10524;48.132;8.518;2023-06-14T02:40:39;8.98;;;5.90;;
20725;SDS011;10524;48.132;8.518;2023-06-14T02:43:07;7.03;;;6.13;;
20725;SDS011;10524;48.132;8.518;2023-06-14T02:45:33;8.55;;;6.30;;
20725;SDS011;10524;48.132;8.518;2023-06-14T02:47:58;7.43;;;5.72;;
20725;SDS011;10524;48.132;8.518;2023-06-14T02:50:24;9.38;;;5.95;;
20725;SDS011;10524;48.132;8.518;2023-06-14T02:52:50;10.75;;;5.80;;
20725;SDS011;10524;48.132;8.518;2023-06-14T02:55:17;6.80;;;6.05;;
20725;SDS011;10524;48.132;8.518;2023-06-14T02:57:43;7.68;;;6.35;;
20725;SDS011;10524;48.132;8.518;2023-06-14T03:00:08;7.53;;;6.07;;
20725;SDS011;10524;48.132;8.518;2023-06-14T03:02:35;7.28;;;5.72;;
20725;SDS011;10524;48.132;8.518;2023-06-14T03:05:01;6.90;;;5.70;;
20725;SDS011;10524;48.132;8.518;2023-06-14T03:07:27;6.80;;;5.60;;
20725;SDS011;10524;48.132;8.518;2023-06-14T03:09:54;7.38;;;6.00;;
20725;SDS011;10524;48.132;8.518;2023-06-14T03:12:20;9.10;;;6.25;;
20725;SDS011;10524;48.132;8.518;2023-06-14T03:14:46;8.57;;;5.88;;
20725;SDS011;10524;48.132;8.518;2023-06-14T03:17:11;9.18;;;6.32;;
20725;SDS011;10524;48.132;8.518;2023-06-14T03:19:37;9.05;;;5.85;;
20725;SDS011;10524;48.132;8.518;2023-06-14T03:22:03;8.30;;;6.10;;
20725;SDS011;10524;48.132;8.518;2023-06-14T03:24:29;9.10;;;6.10;;
20725;SDS011;10524;48.132;8.518;2023-06-14T03:26:57;7.90;;;6.13;;
20725;SDS011;10524;48.132;8.518;2023-06-14T03:29:22;8.27;;;6.03;;
20725;SDS011;10524;48.132;8.518;2023-06-14T03:32:01;8.07;;;6.35;;
20725;SDS011;10524;48.132;8.518;2023-06-14T03:34:28;8.65;;;6.32;;
20725;SDS011;10524;48.132;8.518;2023-06-14T03:36:53;7.07;;;6.13;;
20725;SDS011;10524;48.132;8.518;2023-06-14T03:39:19;8.93;;;6.35;;
20725;SDS011;10524;48.132;8.518;2023-06-14T03:41:45;8.63;;;6.10;;
20725;SDS011;10524;48.132;8.518;2023-06-14T03:44:11;7.78;;;6.47;;
20725;SDS011;10524;48.132;8.518;2023-06-14T03:46:36;7.68;;;6.32;;
20725;SDS011;10524;48.132;8.518;2023-06-14T03:49:02;10.70;;;7.38;;
20725;SDS011;10524;48.132;8.518;2023-06-14T03:51:28;9.93;;;6.45;;
20725;SDS011;10524;48.132;8.518;2023-06-14T03:53:54;8.88;;;6.70;;
20725;SDS011;10524;48.132;8.518;2023-06-14T03:56:21;9.75;;;6.22;;
20725;SDS011;10524;48.132;8.518;2023-06-14T03:58:46;7.40;;;5.80;;
20725;SDS011;10524;48.132;8.518;2023-06-14T04:01:15;8.52;;;6.38;;
20725;SDS011;10524;48.132;8.518;2023-06-14T04:03:40;11.82;;;6.20;;
20725;SDS011;10524;48.132;8.518;2023-06-14T04:06:06;9.02;;;5.65;;
20725;SDS011;10524;48.132;8.518;2023-06-14T04:08:32;7.28;;;5.65;;
20725;SDS011;10524;48.132;8.518;2023-06-14T04:10:59;8.52;;;5.70;;
20725;SDS011;10524;48.132;8.518;2023-06-14T04:13:25;5.90;;;5.00;;
20725;SDS011;10524;48.132;8.518;2023-06-14T04:15:51;5.72;;;5.00;;
20725;SDS011;10524;48.132;8.518;2023-06-14T04:18:16;7.15;;;5.25;;
20725;SDS011;10524;48.132;8.518;2023-06-14T04:20:43;5.35;;;4.68;;
20725;SDS011;10524;48.132;8.518;2023-06-14T04:23:12;6.25;;;4.75;;
20725;SDS011;10524;48.132;8.518;2023-06-14T04:25:38;7.80;;;5.03;;
20725;SDS011;10524;48.132;8.518;2023-06-14T04:28:05;7.32;;;4.88;;
20725;SDS011;10524;48.132;8.518;2023-06-14T04:30:33;5.50;;;4.47;;
20725;SDS011;10524;48.132;8.518;2023-06-14T04:33:01;4.93;;;4.47;;
20725;SDS011;10524;48.132;8.518;2023-06-14T04:35:30;5.03;;;4.50;;
20725;SDS011;10524;48.132;8.518;2023-06-14T04:37:57;5.15;;;4.65;;
20725;SDS011;10524;48.132;8.518;2023-06-14T04:40:23;6.28;;;4.82;;
20725;SDS011;10524;48.132;8.518;2023-06-14T04:42:49;4.55;;;4.15;;
20725;SDS011;10524;48.132;8.518;2023-06-14T04:45:15;6.82;;;4.60;;
20725;SDS011;10524;48.132;8.518;2023-06-14T04:47:42;5.55;;;4.13;;
20725;SDS011;10524;48.132;8.518;2023-06-14T04:50:09;6.18;;;4.63;;
20725;SDS011;10524;48.132;8.518;2023-06-14T04:52:36;5.10;;;4.60;;
20725;SDS011;10524;48.132;8.518;2023-06-14T04:55:02;5.03;;;4.35;;
20725;SDS011;10524;48.132;8.518;2023-06-14T04:57:28;5.82;;;4.72;;
20725;SDS011;10524;48.132;8.518;2023-06-14T04:59:54;5.97;;;4.95;;
20725;SDS011;10524;48.132;8.518;2023-06-14T05:02:22;6.65;;;4.80;;
20725;SDS011;10524;48.132;8.518;2023-06-14T05:04:49;9.27;;;5.40;;
20725;SDS011;10524;48.132;8.518;2023-06-14T05:07:15;7.13;;;5.03;;
20725;SDS011;10524;48.132;8.518;2023-06-14T05:09:41;5.45;;;4.93;;
20725;SDS011;10524;48.132;8.518;2023-06-14T05:12:07;7.22;;;4.97;;
20725;SDS011;10524;48.132;8.518;2023-06-14T05:14:33;5.00;;;4.50;;
20725;SDS011;10524;48.132;8.518;2023-06-14T05:16:59;6.85;;;4.90;;
20725;SDS011;10524;48.132;8.518;2023-06-14T05:19:25;7.40;;;4.80;;
20725;SDS011;10524;48.132;8.518;2023-06-14T05:21:51;7.38;;;4.88;;
20725;SDS011;10524;48.132;8.518;2023-06-14T05:24:18;6.20;;;4.68;;
20725;SDS011;10524;48.132;8.518;2023-06-14T05:26:43;5.85;;;4.80;;
20725;SDS011;10524;48.132;8.518;2023-06-14T05:29:09;5.55;;;4.75;;
20725;SDS011;10524;48.132;8.518;2023-06-14T05:31:35;6.05;;;5.03;;
20725;SDS011;10524;48.132;8.518;2023-06-14T05:34:00;5.65;;;5.05;;
20725;SDS011;10524;48.132;8.518;2023-06-14T05:36:26;6.00;;;5.00;;
20725;SDS011;10524;48.132;8.518;2023-06-14T05:38:52;6.80;;;5.25;;
20725;SDS011;10524;48.132;8.518;2023-06-14T05:41:23;6.13;;;5.00;;
20725;SDS011;10524;48.132;8.518;2023-06-14T05:43:52;6.07;;;4.72;;
20725;SDS011;10524;48.132;8.518;2023-06-14T05:46:18;7.15;;;4.70;;
20725;SDS011;10524;48.132;8.518;2023-06-14T05:48:47;5.70;;;4.50;;
20725;SDS011;10524;48.132;8.518;2023-06-14T05:51:14;4.95;;;4.45;;
20725;SDS011;10524;48.132;8.518;2023-06-14T05:53:41;6.53;;;4.95;;
20725;SDS011;10524;48.132;8.518;2023-06-14T05:56:06;6.82;;;4.32;;
20725;SDS011;10524;48.132;8.518;2023-06-14T05:58:32;5.80;;;4.68;;
20725;SDS011;10524;48.132;8.518;2023-06-14T06:00:57;6.57;;;4.40;;
20725;SDS011;10524;48.132;8.518;2023-06-14T06:03:23;5.07;;;4.20;;
20725;SDS011;10524;48.132;8.518;2023-06-14T06:05:49;6.47;;;4.28;;
20725;SDS011;10524;48.132;8.518;2023-06-14T06:08:14;6.30;;;4.20;;
20725;SDS011;10524;48.132;8.518;2023-06-14T06:10:41;6.93;;;4.80;;
20725;SDS011;10524;48.132;8.518;2023-06-14T06:13:07;5.20;;;4.60;;
20725;SDS011;10524;48.132;8.518;2023-06-14T06:15:33;8.00;;;4.40;;
20725;SDS011;10524;48.132;8.518;2023-06-14T06:17:59;6.82;;;4.20;;
20725;SDS011;10524;48.132;8.518;2023-06-14T06:20:24;5.50;;;4.32;;
20725;SDS011;10524;48.132;8.518;2023-06-14T06:22:55;8.57;;;3.92;;
20725;SDS011;10524;48.132;8.518;2023-06-14T06:25:20;4.28;;;3.40;;
20725;SDS011;10524;48.132;8.518;2023-06-14T06:27:47;5.95;;;4.00;;
20725;SDS011;10524;48.132;8.518;2023-06-14T06:30:13;5.10;;;3.67;;
20725;SDS011;10524;48.132;8.518;2023-06-14T06:32:38;7.40;;;3.65;;
20725;SDS011;10524;48.132;8.518;2023-06-14T06:35:04;5.50;;;3.55;;
20725;SDS011;10524;48.132;8.518;2023-06-14T06:37:32;4.63;;;3.50;;
20725;SDS011;10524;48.132;8.518;2023-06-14T06:39:57;4.38;;;3.90;;
20725;SDS011;10524;48.132;8.518;2023-06-14T06:42:23;6.65;;;4.00;;
20725;SDS011;10524;48.132;8.518;2023-06-14T06:44:49;5.20;;;3.30;;
20725;SDS011;10524;48.132;8.518;2023-06-14T06:47:14;5.53;;;3.60;;
20725;SDS011;10524;48.132;8.518;2023-06-14T06:49:40;3.85;;;3.38;;
20725;SDS011;10524;48.132;8.518;2023-06-14T06:52:06;5.78;;;3.38;;
20725;SDS011;10524;48.132;8.518;2023-06-14T06:54:32;5.28;;;3.40;;
20725;SDS011;10524;48.132;8.518;2023-06-14T06:56:59;6.97;;;3.10;;
20725;SDS011;10524;48.132;8.518;2023-06-14T06:59:26;5.50;;;3.30;;
20725;SDS011;10524;48.132;8.518;2023-06-14T07:01:52;5.65;;;3.35;;
20725;SDS011;10524;48.132;8.518;2023-06-14T07:04:17;6.13;;;3.17;;
20725;SDS011;10524;48.132;8.518;2023-06-14T07:06:43;4.45;;;3.08;;
20725;SDS011;10524;48.132;8.518;2023-06-14T07:09:11;3.78;;;3.33;;
20725;SDS011;10524;48.132;8.518;2023-06-14T07:11:38;5.82;;;3.30;;
20725;SDS011;10524;48.132;8.518;2023-06-14T07:14:04;4.15;;;3.28;;
20725;SDS011;10524;48.132;8.518;2023-06-14T07:16:30;3.33;;;2.50;;
20725;SDS011;10524;48.132;8.518;2023-06-14T07:18:56;4.80;;;3.25;;
20725;SDS011;10524;48.132;8.518;2023-06-14T07:21:21;7.07;;;3.45;;
20725;SDS011;10524;48.132;8.518;2023-06-14T07:23:47;6.35;;;3.13;;
20725;SDS011;10524;48.132;8.518;2023-06-14T07:26:13;5.18;;;3.00;;
20725;SDS011;10524;48.132;8.518;2023-06-14T07:28:38;4.28;;;3.10;;
20725;SDS011;10524;48.132;8.518;2023-06-14T07:31:04;6.20;;;3.28;;
20725;SDS011;10524;48.132;8.518;2023-06-14T07:33:30;4.00;;;2.90;;
20725;SDS011;10524;48.132;8.518;2023-06-14T07:35:55;4.93;;;3.20;;
20725;SDS011;10524;48.132;8.518;2023-06-14T07:38:21;5.20;;;2.70;;
20725;SDS011;10524;48.132;8.518;2023-06-14T07:40:47;3.70;;;2.72;;
20725;SDS011;10524;48.132;8.518;2023-06-14T07:43:12;3.42;;;2.70;;
20725;SDS011;10524;48.132;8.518;2023-06-14T07:45:38;6.28;;;3.08;;
20725;SDS011;10524;48.132;8.518;2023-06-14T07:48:04;4.10;;;2.72;;
20725;SDS011;10524;48.132;8.518;2023-06-14T07:50:29;3.13;;;2.83;;
20725;SDS011;10524;48.132;8.518;2023-06-14T07:52:55;4.35;;;3.00;;
20725;SDS011;10524;48.132;8.518;2023-06-14T07:55:21;4.57;;;3.00;;
20725;SDS011;10524;48.132;8.518;2023-06-14T07:57:47;5.00;;;3.10;;
20725;SDS011;10524;48.132;8.518;2023-06-14T08:00:13;5.15;;;3.00;;
20725;SDS011;10524;48.132;8.518;2023-06-14T08:02:43;5.68;;;3.00;;
20725;SDS011;10524;48.132;8.518;2023-06-14T08:05:10;5.00;;;2.90;;
20725;SDS011;10524;48.132;8.518;2023-06-14T08:07:38;4.68;;;2.75;;
20725;SDS011;10524;48.132;8.518;2023-06-14T08:10:05;6.15;;;2.80;;
20725;SDS011;10524;48.132;8.518;2023-06-14T08:12:32;5.00;;;3.00;;
20725;SDS011;10524;48.132;8.518;2023-06-14T08:14:59;3.47;;;2.83;;
20725;SDS011;10524;48.132;8.518;2023-06-14T08:17:24;3.10;;;2.67;;
20725;SDS011;10524;48.132;8.518;2023-06-14T08:19:50;4.85;;;2.88;;
20725;SDS011;10524;48.132;8.518;2023-06-14T08:22:16;4.32;;;2.70;;
20725;SDS011;10524;48.132;8.518;2023-06-14T08:24:43;5.63;;;3.00;;
20725;SDS011;10524;48.132;8.518;2023-06-14T08:27:09;3.95;;;3.10;;
20725;SDS011;10524;48.132;8.518;2023-06-14T08:29:35;3.22;;;2.92;;
20725;SDS011;10524;48.132;8.518;2023-06-14T08:32:00;4.57;;;3.10;;
20725;SDS011;10524;48.132;8.518;2023-06-14T08:34:26;7.95;;;3.35;;
20725;SDS011;10524;48.132;8.518;2023-06-14T08:36:52;9.18;;;3.28;;
20725;SDS011;10524;48.132;8.518;2023-06-14T08:39:18;9.93;;;3.50;;
20725;SDS011;10524;48.132;8.518;2023-06-14T08:41:46;5.75;;;3.10;;
20725;SDS011;10524;48.132;8.518;2023-06-14T08:44:19;3.90;;;2.72;;
20725;SDS011;10524;48.132;8.518;2023-06-14T08:46:44;4.55;;;3.00;;
20725;SDS011;10524;48.132;8.518;2023-06-14T08:49:12;7.55;;;2.85;;
20725;SDS011;10524;48.132;8.518;2023-06-14T08:51:39;7.18;;;3.20;;
20725;SDS011;10524;48.132;8.518;2023-06-14T08:54:05;4.78;;;2.90;;
20725;SDS011;10524;48.132;8.518;2023-06-14T08:56:32;5.60;;;3.08;;
20725;SDS011;10524;48.132;8.518;2023-06-14T08:58:59;4.95;;;2.80;;
20725;SDS011;10524;48.132;8.518;2023-06-14T09:01:34;11.10;;;3.17;;
20725;SDS011;10524;48.132;8.518;2023-06-14T09:04:01;7.13;;;2.80;;
20725;SDS011;10524;48.132;8.518;2023-06-14T09:06:27;4.22;;;2.92;;
20725;SDS011;10524;48.132;8.518;2023-06-14T09:08:54;5.47;;;3.05;;
20725;SDS011;10524;48.132;8.518;2023-06-14T09:11:22;7.50;;;3.00;;
20725;SDS011;10524;48.132;8.518;2023-06-14T09:13:48;5.40;;;2.80;;
20725;SDS011;10524;48.132;8.518;2023-06-14T09:16:14;12.18;;;3.55;;
20725;SDS011;10524;48.132;8.518;2023-06-14T09:18:45;4.95;;;3.03;;
20725;SDS011;10524;48.132;8.518;2023-06-14T09:21:15;8.15;;;3.10;;
20725;SDS011;10524;48.132;8.518;2023-06-14T09:23:42;4.32;;;3.10;;
20725;SDS011;10524;48.132;8.518;2023-06-14T09:28:36;4.65;;;3.00;;
20725;SDS011;10524;48.132;8.518;2023-06-14T09:31:06;3.78;;;3.05;;
20725;SDS011;10524;48.132;8.518;2023-06-14T09:33:33;8.02;;;2.78;;
20725;SDS011;10524;48.132;8.518;2023-06-14T09:35:59;5.95;;;2.60;;
20725;SDS011;10524;48.132;8.518;2023-06-14T09:38:25;6.32;;;2.60;;
20725;SDS011;10524;48.132;8.518;2023-06-14T09:40:51;8.07;;;2.83;;
20725;SDS011;10524;48.132;8.518;2023-06-14T09:43:17;6.13;;;2.53;;
20725;SDS011;10524;48.132;8.518;2023-06-14T09:45:44;5.60;;;2.72;;
20725;SDS011;10524;48.132;8.518;2023-06-14T09:48:13;4.45;;;3.05;;
20725;SDS011;10524;48.132;8.518;2023-06-14T09:50:43;5.50;;;2.85;;
20725;SDS011;10524;48.132;8.518;2023-06-14T09:53:11;8.25;;;3.10;;
20725;SDS011;10524;48.132;8.518;2023-06-14T09:55:39;3.08;;;2.80;;
20725;SDS011;10524;48.132;8.518;2023-06-14T09:58:06;4.78;;;2.88;;
20725;SDS011;10524;48.132;8.518;2023-06-14T10:00:33;6.38;;;3.05;;
20725;SDS011;10524;48.132;8.518;2023-06-14T10:03:00;4.72;;;2.92;;
20725;SDS011;10524;48.132;8.518;2023-06-14T10:05:31;5.37;;;3.23;;
20725;SDS011;10524;48.132;8.518;2023-06-14T10:08:04;8.75;;;3.47;;
20725;SDS011;10524;48.132;8.518;2023-06-14T10:10:34;7.75;;;3.25;;
20725;SDS011;10524;48.132;8.518;2023-06-14T10:13:00;4.55;;;3.45;;
20725;SDS011;10524;48.132;8.518;2023-06-14T10:15:32;5.20;;;3.25;;
20725;SDS011;10524;48.132;8.518;2023-06-14T10:23:51;4.10;;;3.30;;
20725;SDS011;10524;48.132;8.518;2023-06-14T10:26:20;7.55;;;3.47;;
20725;SDS011;10524;48.132;8.518;2023-06-14T10:28:57;6.03;;;3.53;;
20725;SDS011;10524;48.132;8.518;2023-06-14T10:34:10;6.30;;;3.25;;
20725;SDS011;10524;48.132;8.518;2023-06-14T10:36:37;8.90;;;3.30;;
20725;SDS011;10524;48.132;8.518;2023-06-14T10:39:08;7.28;;;3.38;;
20725;SDS011;10524;48.132;8.518;2023-06-14T10:41:54;6.38;;;4.13;;
20725;SDS011;10524;48.132;8.518;2023-06-14T10:46:53;6.90;;;3.47;;
20725;SDS011;10524;48.132;8.518;2023-06-14T10:49:20;4.93;;;3.50;;
20725;SDS011;10524;48.132;8.518;2023-06-14T10:52:03;5.75;;;3.45;;
20725;SDS011;10524;48.132;8.518;2023-06-14T10:54:31;3.97;;;3.58;;
20725;SDS011;10524;48.132;8.518;2023-06-14T10:56:57;6.70;;;3.38;;
20725;SDS011;10524;48.132;8.518;2023-06-14T10:59:24;4.65;;;3.60;;
20725;SDS011;10524;48.132;8.518;2023-06-14T11:04:47;6.28;;;3.53;;
20725;SDS011;10524;48.132;8.518;2023-06-14T11:09:56;6.30;;;3.10;;
20725;SDS011;10524;48.132;8.518;2023-06-14T11:12:45;7.72;;;3.80;;
20725;SDS011;10524;48.132;8.518;2023-06-14T11:15:13;6.45;;;3.65;;
20725;SDS011;10524;48.132;8.518;2023-06-14T11:17:39;6.90;;;3.08;;
20725;SDS011;10524;48.132;8.518;2023-06-14T11:20:14;5.13;;;3.58;;
20725;SDS011;10524;48.132;8.518;2023-06-14T11:22:43;4.30;;;3.40;;
20725;SDS011;10524;48.132;8.518;2023-06-14T11:25:10;4.72;;;3.35;;
20725;SDS011;10524;48.132;8.518;2023-06-14T11:27:36;5.70;;;3.70;;
20725;SDS011;10524;48.132;8.518;2023-06-14T11:30:02;4.63;;;3.30;;
20725;SDS011;10524;48.132;8.518;2023-06-14T11:32:28;4.97;;;3.33;;
20725;SDS011;10524;48.132;8.518;2023-06-14T11:34:56;5.28;;;3.10;;
20725;SDS011;10524;48.132;8.518;2023-06-14T11:37:23;5.95;;;3.40;;
20725;SDS011;10524;48.132;8.518;2023-06-14T11:39:51;4.78;;;3.28;;
20725;SDS011;10524;48.132;8.518;2023-06-14T11:42:17;7.65;;;3.28;;
20725;SDS011;10524;48.132;8.518;2023-06-14T11:44:46;5.68;;;3.63;;
20725;SDS011;10524;48.132;8.518;2023-06-14T11:47:12;5.07;;;3.20;;
20725;SDS011;10524;48.132;8.518;2023-06-14T11:49:38;5.28;;;3.42;;
20725;SDS011;10524;48.132;8.518;2023-06-14T11:52:04;4.63;;;3.17;;
20725;SDS011;10524;48.132;8.518;2023-06-14T11:54:31;3.55;;;3.00;;
20725;SDS011;10524;48.132;8.518;2023-06-14T11:56:57;3.60;;;3.00;;
20725;SDS011;10524;48.132;8.518;2023-06-14T11:59:24;7.95;;;3.25;;
20725;SDS011;10524;48.132;8.518;2023-06-14T12:01:50;6.93;;;3.60;;
20725;SDS011;10524;48.132;8.518;2023-06-14T12:04:28;5.40;;;3.38;;
20725;SDS011;10524;48.132;8.518;2023-06-14T12:06:54;4.18;;;3.15;;
20725;SDS011;10524;48.132;8.518;2023-06-14T12:09:21;7.78;;;3.22;;
20725;SDS011;10524;48.132;8.518;2023-06-14T12:11:48;5.53;;;3.30;;
20725;SDS011;10524;48.132;8.518;2023-06-14T12:14:14;5.40;;;3.60;;
20725;SDS011;10524;48.132;8.518;2023-06-14T12:16:41;6.60;;;3.60;;
20725;SDS011;10524;48.132;8.518;2023-06-14T12:19:12;5.68;;;3.60;;
20725;SDS011;10524;48.132;8.518;2023-06-14T12:21:39;4.88;;;3.28;;
20725;SDS011;10524;48.132;8.518;2023-06-14T12:24:06;5.80;;;3.65;;
20725;SDS011;10524;48.132;8.518;2023-06-14T12:26:32;4.43;;;3.20;;
20725;SDS011;10524;48.132;8.518;2023-06-14T12:28:58;6.05;;;3.20;;
20725;SDS011;10524;48.132;8.518;2023-06-14T12:31:24;5.43;;;3.58;;
20725;SDS011;10524;48.132;8.518;2023-06-14T12:33:51;4.80;;;3.28;;
20725;SDS011;10524;48.132;8.518;2023-06-14T12:36:17;4.82;;;3.20;;
20725;SDS011;10524;48.132;8.518;2023-06-14T12:38:42;4.70;;;3.20;;
20725;SDS011;10524;48.132;8.518;2023-06-14T12:41:08;5.72;;;3.08;;
20725;SDS011;10524;48.132;8.518;2023-06-14T12:43:34;4.50;;;3.10;;
20725;SDS011;10524;48.132;8.518;2023-06-14T12:46:00;6.40;;;3.53;;
20725;SDS011;10524;48.132;8.518;2023-06-14T12:48:26;4.72;;;3.42;;
20725;SDS011;10524;48.132;8.518;2023-06-14T12:50:56;5.82;;;3.30;;
20725;SDS011;10524;48.132;8.518;2023-06-14T12:53:22;4.65;;;3.05;;
20725;SDS011;10524;48.132;8.518;2023-06-14T12:55:48;5.60;;;3.30;;
20725;SDS011;10524;48.132;8.518;2023-06-14T12:58:14;5.95;;;2.97;;
20725;SDS011;10524;48.132;8.518;2023-06-14T13:00:42;4.18;;;3.30;;
20725;SDS011;10524;48.132;8.518;2023-06-14T13:03:07;9.30;;;3.40;;
20725;SDS011;10524;48.132;8.518;2023-06-14T13:05:34;3.63;;;3.00;;
20725;SDS011;10524;48.132;8.518;2023-06-14T13:08:00;8.48;;;3.65;;
20725;SDS011;10524;48.132;8.518;2023-06-14T13:10:26;5.43;;;3.30;;
20725;SDS011;10524;48.132;8.518;2023-06-14T13:12:52;4.28;;;2.88;;
20725;SDS011;10524;48.132;8.518;2023-06-14T13:15:18;6.25;;;3.45;;
20725;SDS011;10524;48.132;8.518;2023-06-14T13:17:43;5.15;;;3.20;;
20725;SDS011;10524;48.132;8.518;2023-06-14T13:20:13;6.63;;;3.30;;
20725;SDS011;10524;48.132;8.518;2023-06-14T13:22:40;4.95;;;3.13;;
20725;SDS011;10524;48.132;8.518;2023-06-14T13:25:06;5.38;;;3.20;;
20725;SDS011;10524;48.132;8.518;2023-06-14T13:27:32;3.65;;;3.20;;
20725;SDS011;10524;48.132;8.518;2023-06-14T13:29:57;4.70;;;3.03;;
20725;SDS011;10524;48.132;8.518;2023-06-14T13:32:23;4.65;;;3.20;;
20725;SDS011;10524;48.132;8.518;2023-06-14T13:34:49;4.25;;;3.17;;
20725;SDS011;10524;48.132;8.518;2023-06-14T13:37:15;5.28;;;3.50;;
20725;SDS011;10524;48.132;8.518;2023-06-14T13:39:41;4.38;;;3.30;;
20725;SDS011;10524;48.132;8.518;2023-06-14T13:42:07;3.97;;;3.38;;
20725;SDS011;10524;48.132;8.518;2023-06-14T13:44:32;6.35;;;3.22;;
20725;SDS011;10524;48.132;8.518;2023-06-14T13:46:58;5.72;;;3.53;;
20725;SDS011;10524;48.132;8.518;2023-06-14T13:49:24;3.88;;;3.45;;
20725;SDS011;10524;48.132;8.518;2023-06-14T13:51:52;5.72;;;3.47;;
20725;SDS011;10524;48.132;8.518;2023-06-14T13:54:21;4.45;;;3.25;;
20725;SDS011;10524;48.132;8.518;2023-06-14T13:56:46;8.45;;;3.45;;
20725;SDS011;10524;48.132;8.518;2023-06-14T13:59:12;4.93;;;3.10;;
20725;SDS011;10524;48.132;8.518;2023-06-14T14:01:38;4.00;;;3.42;;
20725;SDS011;10524;48.132;8.518;2023-06-14T14:04:03;6.13;;;3.20;;
20725;SDS011;10524;48.132;8.518;2023-06-14T14:06:31;7.03;;;3.55;;
20725;SDS011;10524;48.132;8.518;2023-06-14T14:08:57;4.65;;;3.20;;
20725;SDS011;10524;48.132;8.518;2023-06-14T14:11:23;5.40;;;3.40;;
20725;SDS011;10524;48.132;8.518;2023-06-14T14:13:48;4.38;;;3.60;;
20725;SDS011;10524;48.132;8.518;2023-06-14T14:16:14;5.38;;;3.72;;
20725;SDS011;10524;48.132;8.518;2023-06-14T14:18:40;4.30;;;3.38;;
20725;SDS011;10524;48.132;8.518;2023-06-14T14:21:06;6.28;;;3.80;;
20725;SDS011;10524;48.132;8.518;2023-06-14T14:23:31;4.88;;;3.20;;
20725;SDS011;10524;48.132;8.518;2023-06-14T14:25:57;7.07;;;3.40;;
20725;SDS011;10524;48.132;8.518;2023-06-14T14:28:23;5.38;;;3.40;;
20725;SDS011;10524;48.132;8.518;2023-06-14T14:30:48;3.92;;;3.30;;
20725;SDS011;10524;48.132;8.518;2023-06-14T14:33:14;3.83;;;3.47;;
20725;SDS011;10524;48.132;8.518;2023-06-14T14:35:44;5.88;;;3.92;;
20725;SDS011;10524;48.132;8.518;2023-06-14T14:38:14;6.63;;;3.58;;
20725;SDS011;10524;48.132;8.518;2023-06-14T14:40:43;6.50;;;3.25;;
20725;SDS011;10524;48.132;8.518;2023-06-14T14:43:10;7.03;;;3.72;;
20725;SDS011;10524;48.132;8.518;2023-06-14T14:45:36;6.45;;;3.60;;
20725;SDS011;10524;48.132;8.518;2023-06-14T14:48:02;6.43;;;3.80;;
20725;SDS011;10524;48.132;8.518;2023-06-14T14:50:28;4.72;;;3.50;;
20725;SDS011;10524;48.132;8.518;2023-06-14T14:52:53;7.75;;;3.50;;
20725;SDS011;10524;48.132;8.518;2023-06-14T14:55:19;6.53;;;3.10;;
20725;SDS011;10524;48.132;8.518;2023-06-14T14:57:45;6.30;;;3.10;;
20725;SDS011;10524;48.132;8.518;2023-06-14T15:00:12;4.20;;;3.30;;
20725;SDS011;10524;48.132;8.518;2023-06-14T15:02:39;4.45;;;3.15;;
20725;SDS011;10524;48.132;8.518;2023-06-14T15:05:04;5.45;;;3.28;;
20725;SDS011;10524;48.132;8.518;2023-06-14T15:07:30;4.38;;;3.03;;